sensor_id;sensor_type;location;lat;lon;timestamp;pressure;altitude;pressure_sealevel;temperature;humidity
29825;BME280;16713;52.916;12.834;2023-04-22T00:01:28;100937.28;;;8.89;62.94
29825;BME280;16713;52.916;12.834;2023-04-22T00:03:55;100925.38;;;8.85;63.70
29825;BME280;16713;52.916;12.834;2023-04-22T00:06:22;100929.75;;;8.98;62.96
29825;BME280;16713;52.916;12.834;2023-04-22T00:08:49;100933.56;;;9.18;61.91
29825;BME280;16713;52.916;12.834;2023-04-22T00:11:15;100934.78;;;9.41;61.83
29825;BME280;16713;52.916;12.834;2023-04-22T00:13:41;100930.34;;;9.37;62.23
29825;BME280;16713;52.916;12.834;2023-04-22T00:16:08;100925.19;;;9.47;60.31
29825;BME280;16713;52.916;12.834;2023-04-22T00:18:35;100926.09;;;9.39;61.69
29825;BME280;16713;52.916;12.834;2023-04-22T00:21:02;100914.47;;;9.54;61.69
29825;BME280;16713;52.916;12.834;2023-04-22T00:23:29;100909.69;;;9.39;61.38
29825;BME280;16713;52.916;12.834;2023-04-22T00:25:55;100906.00;;;9.59;58.83
29825;BME280;16713;52.916;12.834;2023-04-22T00:28:22;100902.50;;;9.47;61.08
29825;BME280;16713;52.916;12.834;2023-04-22T00:30:48;100904.19;;;9.51;61.13
29825;BME280;16713;52.916;12.834;2023-04-22T00:33:15;100897.13;;;9.50;59.92
29825;BME280;16713;52.916;12.834;2023-04-22T00:35:41;100897.81;;;9.47;59.58
29825;BME280;16713;52.916;12.834;2023-04-22T00:38:07;100904.53;;;9.50;58.71
29825;BME280;16713;52.916;12.834;2023-04-22T00:40:34;100895.53;;;9.61;58.00
29825;BME280;16713;52.916;12.834;2023-04-22T00:43:01;100893.47;;;9.58;59.97
29825;BME280;16713;52.916;12.834;2023-04-22T00:45:29;100889.50;;;9.56;60.24
29825;BME280;16713;52.916;12.834;2023-04-22T00:47:56;100890.63;;;9.67;59.14
29825;BME280;16713;52.916;12.834;2023-04-22T00:50:23;100891.19;;;9.60;59.20
29825;BME280;16713;52.916;12.834;2023-04-22T00:52:49;100888.34;;;9.69;58.25
29825;BME280;16713;52.916;12.834;2023-04-22T00:55:16;100886.19;;;9.62;58.37
29825;BME280;16713;52.916;12.834;2023-04-22T00:57:43;100880.00;;;9.77;58.24
29825;BME280;16713;52.916;12.834;2023-04-22T01:00:10;100878.59;;;9.83;58.25
29825;BME280;16713;52.916;12.834;2023-04-22T01:02:37;100873.03;;;9.80;58.89
29825;BME280;16713;52.916;12.834;2023-04-22T01:05:05;100874.63;;;9.81;57.43
29825;BME280;16713;52.916;12.834;2023-04-22T01:07:31;100881.25;;;9.80;58.23
29825;BME280;16713;52.916;12.834;2023-04-22T01:09:58;100878.50;;;9.80;57.46
29825;BME280;16713;52.916;12.834;2023-04-22T01:12:24;100878.72;;;9.87;57.26
29825;BME280;16713;52.916;12.834;2023-04-22T01:14:51;100870.06;;;9.85;57.02
29825;BME280;16713;52.916;12.834;2023-04-22T01:17:17;100867.31;;;9.85;56.63
29825;BME280;16713;52.916;12.834;2023-04-22T01:19:44;100864.09;;;9.95;56.80
29825;BME280;16713;52.916;12.834;2023-04-22T01:22:13;100862.38;;;10.02;56.05
29825;BME280;16713;52.916;12.834;2023-04-22T01:24:40;100861.81;;;9.97;57.31
29825;BME280;16713;52.916;12.834;2023-04-22T01:27:07;100864.19;;;9.98;56.68
29825;BME280;16713;52.916;12.834;2023-04-22T01:29:38;100867.75;;;9.99;56.55
29825;BME280;16713;52.916;12.834;2023-04-22T01:32:05;100866.22;;;10.01;56.77
29825;BME280;16713;52.916;12.834;2023-04-22T01:34:32;100863.97;;;9.91;56.59
29825;BME280;16713;52.916;12.834;2023-04-22T01:36:59;100867.88;;;9.90;57.64
29825;BME280;16713;52.916;12.834;2023-04-22T01:39:25;100857.38;;;9.92;57.76
29825;BME280;16713;52.916;12.834;2023-04-22T01:41:52;100852.81;;;9.84;56.99
29825;BME280;16713;52.916;12.834;2023-04-22T01:44:19;100858.31;;;9.84;55.52
29825;BME280;16713;52.916;12.834;2023-04-22T01:46:45;100853.72;;;9.88;56.42
29825;BME280;16713;52.916;12.834;2023-04-22T01:49:11;100849.16;;;9.92;56.36
29825;BME280;16713;52.916;12.834;2023-04-22T01:51:38;100845.50;;;9.88;56.34
29825;BME280;16713;52.916;12.834;2023-04-22T01:54:04;100847.44;;;9.88;56.91
29825;BME280;16713;52.916;12.834;2023-04-22T01:56:31;100848.34;;;9.92;56.23
29825;BME280;16713;52.916;12.834;2023-04-22T01:58:57;100837.38;;;9.92;56.77
29825;BME280;16713;52.916;12.834;2023-04-22T02:01:24;100849.16;;;9.92;55.64
29825;BME280;16713;52.916;12.834;2023-04-22T02:03:50;100842.31;;;9.86;55.88
29825;BME280;16713;52.916;12.834;2023-04-22T02:06:17;100834.53;;;9.88;56.13
29825;BME280;16713;52.916;12.834;2023-04-22T02:08:43;100832.59;;;9.89;55.54
29825;BME280;16713;52.916;12.834;2023-04-22T02:11:10;100834.00;;;9.83;55.74
29825;BME280;16713;52.916;12.834;2023-04-22T02:13:38;100824.56;;;9.68;57.78
29825;BME280;16713;52.916;12.834;2023-04-22T02:16:06;100821.00;;;9.68;57.16
29825;BME280;16713;52.916;12.834;2023-04-22T02:18:32;100827.75;;;9.70;56.58
29825;BME280;16713;52.916;12.834;2023-04-22T02:20:59;100827.47;;;9.75;57.18
29825;BME280;16713;52.916;12.834;2023-04-22T02:23:26;100827.94;;;9.77;56.05
29825;BME280;16713;52.916;12.834;2023-04-22T02:25:54;100821.13;;;9.71;55.86
29825;BME280;16713;52.916;12.834;2023-04-22T02:28:21;100825.22;;;9.77;56.29
29825;BME280;16713;52.916;12.834;2023-04-22T02:30:47;100819.84;;;9.81;55.48
29825;BME280;16713;52.916;12.834;2023-04-22T02:33:14;100819.38;;;9.91;55.33
29825;BME280;16713;52.916;12.834;2023-04-22T02:35:40;100813.88;;;9.91;55.43
29825;BME280;16713;52.916;12.834;2023-04-22T02:38:07;100816.72;;;9.94;56.45
29825;BME280;16713;52.916;12.834;2023-04-22T02:40:33;100816.78;;;10.10;55.60
29825;BME280;16713;52.916;12.834;2023-04-22T02:43:00;100808.41;;;10.18;55.26
29825;BME280;16713;52.916;12.834;2023-04-22T02:45:27;100814.16;;;10.13;55.49
29825;BME280;16713;52.916;12.834;2023-04-22T02:47:53;100812.00;;;10.07;54.53
29825;BME280;16713;52.916;12.834;2023-04-22T02:50:20;100819.63;;;10.13;54.45
29825;BME280;16713;52.916;12.834;2023-04-22T02:52:46;100815.63;;;10.11;54.86
29825;BME280;16713;52.916;12.834;2023-04-22T02:55:13;100814.28;;;10.05;56.76
29825;BME280;16713;52.916;12.834;2023-04-22T02:57:39;100821.16;;;9.99;56.32
29825;BME280;16713;52.916;12.834;2023-04-22T03:00:07;100814.88;;;9.98;56.41
29825;BME280;16713;52.916;12.834;2023-04-22T03:02:33;100816.50;;;9.87;55.29
29825;BME280;16713;52.916;12.834;2023-04-22T03:05:00;100815.00;;;9.90;56.90
29825;BME280;16713;52.916;12.834;2023-04-22T03:07:27;100815.13;;;9.93;56.70
29825;BME280;16713;52.916;12.834;2023-04-22T03:09:53;100799.09;;;9.68;56.38
29825;BME280;16713;52.916;12.834;2023-04-22T03:12:21;100804.22;;;9.69;56.75
29825;BME280;16713;52.916;12.834;2023-04-22T03:14:47;100808.00;;;9.65;57.20
29825;BME280;16713;52.916;12.834;2023-04-22T03:17:14;100800.03;;;9.60;56.65
29825;BME280;16713;52.916;12.834;2023-04-22T03:19:40;100799.72;;;9.49;56.81
29825;BME280;16713;52.916;12.834;2023-04-22T03:22:07;100801.28;;;9.62;56.86
29825;BME280;16713;52.916;12.834;2023-04-22T03:24:33;100797.41;;;9.51;56.99
29825;BME280;16713;52.916;12.834;2023-04-22T03:27:00;100803.94;;;9.47;55.71
29825;BME280;16713;52.916;12.834;2023-04-22T03:29:27;100800.66;;;9.41;56.38
29825;BME280;16713;52.916;12.834;2023-04-22T03:31:53;100798.59;;;9.38;57.47
29825;BME280;16713;52.916;12.834;2023-04-22T03:34:20;100799.84;;;9.41;56.52
29825;BME280;16713;52.916;12.834;2023-04-22T03:36:47;100793.22;;;9.42;56.36
29825;BME280;16713;52.916;12.834;2023-04-22T03:39:13;100791.06;;;9.35;56.46
29825;BME280;16713;52.916;12.834;2023-04-22T03:41:40;100795.06;;;9.38;58.39
29825;BME280;16713;52.916;12.834;2023-04-22T03:44:06;100781.28;;;9.22;58.01
29825;BME280;16713;52.916;12.834;2023-04-22T03:46:33;100791.06;;;9.35;56.73
29825;BME280;16713;52.916;12.834;2023-04-22T03:49:00;100790.28;;;9.35;57.01
29825;BME280;16713;52.916;12.834;2023-04-22T03:51:26;100794.03;;;9.30;57.97
29825;BME280;16713;52.916;12.834;2023-04-22T03:53:52;100792.78;;;9.40;56.81
29825;BME280;16713;52.916;12.834;2023-04-22T03:56:19;100792.09;;;9.31;57.34
29825;BME280;16713;52.916;12.834;2023-04-22T03:58:46;100790.16;;;9.31;57.69
29825;BME280;16713;52.916;12.834;2023-04-22T04:01:12;100791.06;;;9.35;57.28
29825;BME280;16713;52.916;12.834;2023-04-22T04:03:39;100792.22;;;9.34;58.25
29825;BME280;16713;52.916;12.834;2023-04-22T04:06:06;100798.59;;;9.26;58.98
29825;BME280;16713;52.916;12.834;2023-04-22T04:08:32;100792.44;;;9.29;57.89
29825;BME280;16713;52.916;12.834;2023-04-22T04:10:59;100785.03;;;9.30;57.87
29825;BME280;16713;52.916;12.834;2023-04-22T04:13:25;100793.25;;;9.30;57.51
29825;BME280;16713;52.916;12.834;2023-04-22T04:15:58;100790.47;;;9.17;58.20
29825;BME280;16713;52.916;12.834;2023-04-22T04:18:26;100790.72;;;9.25;56.94
29825;BME280;16713;52.916;12.834;2023-04-22T04:20:54;100786.25;;;9.20;59.17
29825;BME280;16713;52.916;12.834;2023-04-22T04:23:21;100782.59;;;9.16;58.34
29825;BME280;16713;52.916;12.834;2023-04-22T04:25:48;100785.13;;;9.21;58.25
29825;BME280;16713;52.916;12.834;2023-04-22T04:28:15;100787.53;;;9.23;58.43
29825;BME280;16713;52.916;12.834;2023-04-22T04:30:43;100778.63;;;9.13;57.70
29825;BME280;16713;52.916;12.834;2023-04-22T04:33:09;100783.69;;;9.24;58.74
29825;BME280;16713;52.916;12.834;2023-04-22T04:35:37;100787.66;;;9.26;57.64
29825;BME280;16713;52.916;12.834;2023-04-22T04:38:04;100783.09;;;9.30;58.24
29825;BME280;16713;52.916;12.834;2023-04-22T04:40:32;100788.44;;;9.39;57.42
29825;BME280;16713;52.916;12.834;2023-04-22T04:42:58;100779.44;;;9.38;57.98
29825;BME280;16713;52.916;12.834;2023-04-22T04:45:28;100780.56;;;9.37;58.10
29825;BME280;16713;52.916;12.834;2023-04-22T04:47:55;100779.97;;;9.44;59.13
29825;BME280;16713;52.916;12.834;2023-04-22T04:50:22;100778.50;;;9.46;58.75
29825;BME280;16713;52.916;12.834;2023-04-22T04:52:48;100777.34;;;9.47;58.49
29825;BME280;16713;52.916;12.834;2023-04-22T04:55:15;100780.31;;;9.54;58.31
29825;BME280;16713;52.916;12.834;2023-04-22T04:57:45;100775.38;;;9.60;57.21
29825;BME280;16713;52.916;12.834;2023-04-22T05:00:12;100785.75;;;9.66;57.76
29825;BME280;16713;52.916;12.834;2023-04-22T05:02:41;100772.72;;;9.75;58.60
29825;BME280;16713;52.916;12.834;2023-04-22T05:05:09;100787.06;;;9.84;57.43
29825;BME280;16713;52.916;12.834;2023-04-22T05:07:36;100774.72;;;9.90;57.76
29825;BME280;16713;52.916;12.834;2023-04-22T05:10:03;100777.44;;;10.02;57.19
29825;BME280;16713;52.916;12.834;2023-04-22T05:12:29;100777.72;;;10.13;56.10
29825;BME280;16713;52.916;12.834;2023-04-22T05:14:56;100777.22;;;10.23;57.79
29825;BME280;16713;52.916;12.834;2023-04-22T05:17:22;100770.66;;;10.27;56.65
29825;BME280;16713;52.916;12.834;2023-04-22T05:19:49;100776.53;;;10.41;56.77
29825;BME280;16713;52.916;12.834;2023-04-22T05:22:15;100770.78;;;10.31;57.51
29825;BME280;16713;52.916;12.834;2023-04-22T05:24:43;100777.69;;;10.40;57.23
29825;BME280;16713;52.916;12.834;2023-04-22T05:27:09;100774.25;;;10.43;56.55
29825;BME280;16713;52.916;12.834;2023-04-22T05:29:36;100777.38;;;10.57;56.78
29825;BME280;16713;52.916;12.834;2023-04-22T05:32:03;100769.34;;;10.65;56.64
29825;BME280;16713;52.916;12.834;2023-04-22T05:34:30;100777.03;;;10.59;56.51
29825;BME280;16713;52.916;12.834;2023-04-22T05:36:56;100780.81;;;10.70;57.78
29825;BME280;16713;52.916;12.834;2023-04-22T05:39:23;100779.50;;;10.80;57.42
29825;BME280;16713;52.916;12.834;2023-04-22T05:41:49;100778.97;;;10.90;56.37
29825;BME280;16713;52.916;12.834;2023-04-22T05:44:16;100785.09;;;10.99;56.29
29825;BME280;16713;52.916;12.834;2023-04-22T05:46:42;100791.09;;;11.04;56.73
29825;BME280;16713;52.916;12.834;2023-04-22T05:49:09;100796.75;;;11.11;56.28
29825;BME280;16713;52.916;12.834;2023-04-22T05:51:35;100790.56;;;11.14;56.72
29825;BME280;16713;52.916;12.834;2023-04-22T05:54:02;100790.78;;;11.25;56.20
29825;BME280;16713;52.916;12.834;2023-04-22T05:56:28;100795.66;;;11.31;55.89
29825;BME280;16713;52.916;12.834;2023-04-22T05:58:55;100796.63;;;11.39;55.93
29825;BME280;16713;52.916;12.834;2023-04-22T06:01:22;100800.59;;;11.41;55.59
29825;BME280;16713;52.916;12.834;2023-04-22T06:03:50;100804.75;;;11.51;56.43
29825;BME280;16713;52.916;12.834;2023-04-22T06:06:17;100801.84;;;11.59;56.21
29825;BME280;16713;52.916;12.834;2023-04-22T06:08:43;100796.56;;;11.70;56.09
29825;BME280;16713;52.916;12.834;2023-04-22T06:11:10;100792.81;;;11.78;56.55
29825;BME280;16713;52.916;12.834;2023-04-22T06:13:36;100793.81;;;11.89;56.16
29825;BME280;16713;52.916;12.834;2023-04-22T06:16:03;100791.50;;;11.91;56.02
29825;BME280;16713;52.916;12.834;2023-04-22T06:18:30;100801.22;;;12.04;55.15
29825;BME280;16713;52.916;12.834;2023-04-22T06:20:57;100795.44;;;12.09;55.53
29825;BME280;16713;52.916;12.834;2023-04-22T06:23:24;100795.13;;;12.14;55.55
29825;BME280;16713;52.916;12.834;2023-04-22T06:25:50;100800.97;;;12.32;56.01
29825;BME280;16713;52.916;12.834;2023-04-22T06:28:17;100800.31;;;12.38;54.86
29825;BME280;16713;52.916;12.834;2023-04-22T06:30:44;100801.69;;;12.48;55.34
29825;BME280;16713;52.916;12.834;2023-04-22T06:33:11;100799.28;;;12.46;54.59
29825;BME280;16713;52.916;12.834;2023-04-22T06:35:37;100796.88;;;12.64;55.12
29825;BME280;16713;52.916;12.834;2023-04-22T06:38:04;100807.03;;;12.82;54.16
29825;BME280;16713;52.916;12.834;2023-04-22T06:40:30;100802.88;;;12.92;54.75
29825;BME280;16713;52.916;12.834;2023-04-22T06:42:56;100801.44;;;12.98;55.60
29825;BME280;16713;52.916;12.834;2023-04-22T06:45:23;100799.66;;;13.12;54.10
29825;BME280;16713;52.916;12.834;2023-04-22T06:47:51;100792.59;;;13.11;54.58
29825;BME280;16713;52.916;12.834;2023-04-22T06:50:19;100793.19;;;13.01;53.92
29825;BME280;16713;52.916;12.834;2023-04-22T06:52:46;100798.38;;;13.29;53.26
29825;BME280;16713;52.916;12.834;2023-04-22T06:55:13;100799.97;;;13.30;53.71
29825;BME280;16713;52.916;12.834;2023-04-22T06:57:39;100799.81;;;13.46;53.45
29825;BME280;16713;52.916;12.834;2023-04-22T07:00:06;100798.88;;;13.64;51.75
29825;BME280;16713;52.916;12.834;2023-04-22T07:02:36;100796.91;;;13.91;52.42
29825;BME280;16713;52.916;12.834;2023-04-22T07:05:03;100802.34;;;14.17;51.17
29825;BME280;16713;52.916;12.834;2023-04-22T07:07:29;100806.59;;;14.44;50.97
29825;BME280;16713;52.916;12.834;2023-04-22T07:09:56;100803.69;;;14.63;53.53
29825;BME280;16713;52.916;12.834;2023-04-22T07:12:22;100803.91;;;14.91;52.24
29825;BME280;16713;52.916;12.834;2023-04-22T07:14:50;100809.56;;;15.05;51.59
29825;BME280;16713;52.916;12.834;2023-04-22T07:17:17;100801.44;;;15.26;50.06
29825;BME280;16713;52.916;12.834;2023-04-22T07:19:48;100801.16;;;15.45;50.49
29825;BME280;16713;52.916;12.834;2023-04-22T07:22:14;100800.16;;;15.64;49.87
29825;BME280;16713;52.916;12.834;2023-04-22T07:24:40;100806.50;;;15.71;48.64
29825;BME280;16713;52.916;12.834;2023-04-22T07:27:07;100811.81;;;16.04;49.12
29825;BME280;16713;52.916;12.834;2023-04-22T07:29:33;100806.69;;;16.13;49.56
29825;BME280;16713;52.916;12.834;2023-04-22T07:32:00;100797.66;;;16.24;48.40
29825;BME280;16713;52.916;12.834;2023-04-22T07:34:26;100811.16;;;16.39;48.31
29825;BME280;16713;52.916;12.834;2023-04-22T07:36:53;100809.59;;;16.49;48.91
29825;BME280;16713;52.916;12.834;2023-04-22T07:39:20;100815.94;;;16.49;47.91
29825;BME280;16713;52.916;12.834;2023-04-22T07:41:47;100811.97;;;16.40;47.78
29825;BME280;16713;52.916;12.834;2023-04-22T07:44:13;100815.56;;;16.54;48.62
29825;BME280;16713;52.916;12.834;2023-04-22T07:46:43;100796.16;;;16.37;48.58
29825;BME280;16713;52.916;12.834;2023-04-22T07:49:10;100804.47;;;16.51;49.39
29825;BME280;16713;52.916;12.834;2023-04-22T07:51:39;100814.75;;;16.50;49.62
29825;BME280;16713;52.916;12.834;2023-04-22T07:54:06;100812.81;;;16.68;48.91
29825;BME280;16713;52.916;12.834;2023-04-22T07:56:32;100814.00;;;16.74;49.46
29825;BME280;16713;52.916;12.834;2023-04-22T07:58:59;100807.28;;;16.79;48.78
29825;BME280;16713;52.916;12.834;2023-04-22T08:01:26;100798.16;;;16.54;49.64
29825;BME280;16713;52.916;12.834;2023-04-22T08:03:52;100797.38;;;16.71;49.39
29825;BME280;16713;52.916;12.834;2023-04-22T08:06:19;100791.44;;;16.58;49.20
29825;BME280;16713;52.916;12.834;2023-04-22T08:08:46;100796.22;;;16.72;49.17
29825;BME280;16713;52.916;12.834;2023-04-22T08:11:12;100798.59;;;16.73;48.97
29825;BME280;16713;52.916;12.834;2023-04-22T08:13:38;100794.63;;;16.64;49.79
29825;BME280;16713;52.916;12.834;2023-04-22T08:16:05;100809.25;;;16.68;49.88
29825;BME280;16713;52.916;12.834;2023-04-22T08:18:32;100800.97;;;16.75;48.76
29825;BME280;16713;52.916;12.834;2023-04-22T08:20:59;100797.38;;;16.71;49.13
29825;BME280;16713;52.916;12.834;2023-04-22T08:23:25;100785.50;;;16.53;51.59
29825;BME280;16713;52.916;12.834;2023-04-22T08:25:52;100794.63;;;16.67;50.60
29825;BME280;16713;52.916;12.834;2023-04-22T08:28:18;100791.06;;;16.70;49.33
29825;BME280;16713;52.916;12.834;2023-04-22T08:30:45;100797.00;;;16.76;49.38
29825;BME280;16713;52.916;12.834;2023-04-22T08:33:11;100796.59;;;16.95;47.23
29825;BME280;16713;52.916;12.834;2023-04-22T08:35:39;100793.06;;;16.77;48.94
29825;BME280;16713;52.916;12.834;2023-04-22T08:38:05;100794.63;;;16.81;50.00
29825;BME280;16713;52.916;12.834;2023-04-22T08:40:33;100783.16;;;17.04;48.13
29825;BME280;16713;52.916;12.834;2023-04-22T08:43:00;100782.75;;;16.95;48.24
29825;BME280;16713;52.916;12.834;2023-04-22T08:45:27;100790.69;;;17.07;48.61
29825;BME280;16713;52.916;12.834;2023-04-22T08:47:54;100785.94;;;17.04;48.34
29825;BME280;16713;52.916;12.834;2023-04-22T08:50:22;100781.16;;;16.87;50.85
29825;BME280;16713;52.916;12.834;2023-04-22T08:52:48;100787.91;;;17.00;48.90
29825;BME280;16713;52.916;12.834;2023-04-22T08:55:15;100790.66;;;17.00;50.36
29825;BME280;16713;52.916;12.834;2023-04-22T08:57:41;100789.88;;;17.06;49.28
29825;BME280;16713;52.916;12.834;2023-04-22T09:00:09;100784.34;;;17.06;48.96
29825;BME280;16713;52.916;12.834;2023-04-22T09:02:36;100795.81;;;17.47;47.83
29825;BME280;16713;52.916;12.834;2023-04-22T09:05:05;100786.63;;;17.75;46.65
29825;BME280;16713;52.916;12.834;2023-04-22T09:07:32;100777.81;;;18.01;46.25
29825;BME280;16713;52.916;12.834;2023-04-22T09:09:58;100786.00;;;18.32;48.06
29825;BME280;16713;52.916;12.834;2023-04-22T09:12:25;100786.31;;;18.48;46.50
29825;BME280;16713;52.916;12.834;2023-04-22T09:14:51;100781.47;;;18.59;46.44
29825;BME280;16713;52.916;12.834;2023-04-22T09:17:29;100784.53;;;18.79;45.59
29825;BME280;16713;52.916;12.834;2023-04-22T09:19:57;100783.59;;;18.96;45.72
29825;BME280;16713;52.916;12.834;2023-04-22T09:22:26;100782.38;;;19.01;45.35
29825;BME280;16713;52.916;12.834;2023-04-22T09:24:52;100781.88;;;19.13;45.82
29825;BME280;16713;52.916;12.834;2023-04-22T09:27:23;100774.63;;;19.22;45.29
29825;BME280;16713;52.916;12.834;2023-04-22T09:29:50;100774.59;;;19.26;45.68
29825;BME280;16713;52.916;12.834;2023-04-22T09:32:17;100779.53;;;19.52;45.23
29825;BME280;16713;52.916;12.834;2023-04-22T09:34:53;100778.41;;;19.46;45.31
29825;BME280;16713;52.916;12.834;2023-04-22T09:37:24;100777.88;;;19.58;44.73
29825;BME280;16713;52.916;12.834;2023-04-22T09:40:01;100768.44;;;19.48;44.84
29825;BME280;16713;52.916;12.834;2023-04-22T09:42:29;100771.84;;;19.63;45.78
29825;BME280;16713;52.916;12.834;2023-04-22T09:44:57;100767.91;;;19.60;44.71
29825;BME280;16713;52.916;12.834;2023-04-22T09:47:34;100763.13;;;19.61;46.31
29825;BME280;16713;52.916;12.834;2023-04-22T09:50:03;100757.13;;;19.66;44.13
29825;BME280;16713;52.916;12.834;2023-04-22T09:52:31;100761.44;;;19.70;44.56
29825;BME280;16713;52.916;12.834;2023-04-22T09:54:58;100756.31;;;19.65;45.00
29825;BME280;16713;52.916;12.834;2023-04-22T09:57:24;100738.34;;;19.33;44.02
29825;BME280;16713;52.916;12.834;2023-04-22T09:59:50;100738.06;;;19.24;44.85
29825;BME280;16713;52.916;12.834;2023-04-22T10:02:18;100741.00;;;19.47;44.00
29825;BME280;16713;52.916;12.834;2023-04-22T10:04:54;100731.28;;;19.25;44.58
29825;BME280;16713;52.916;12.834;2023-04-22T10:07:20;100735.38;;;19.54;45.16
29825;BME280;16713;52.916;12.834;2023-04-22T10:09:47;100727.88;;;19.51;44.04
29825;BME280;16713;52.916;12.834;2023-04-22T10:12:13;100729.63;;;19.31;44.45
29825;BME280;16713;52.916;12.834;2023-04-22T10:14:41;100717.91;;;19.13;44.84
29825;BME280;16713;52.916;12.834;2023-04-22T10:17:08;100709.41;;;19.30;44.91
29825;BME280;16713;52.916;12.834;2023-04-22T10:19:36;100702.47;;;19.08;45.51
29825;BME280;16713;52.916;12.834;2023-04-22T10:22:05;100718.19;;;19.25;45.42
29825;BME280;16713;52.916;12.834;2023-04-22T10:24:35;100702.34;;;19.19;44.50
29825;BME280;16713;52.916;12.834;2023-04-22T10:27:03;100702.47;;;19.08;45.70
29825;BME280;16713;52.916;12.834;2023-04-22T10:29:36;100701.94;;;19.20;45.36
29825;BME280;16713;52.916;12.834;2023-04-22T10:34:45;100697.38;;;19.03;45.64
29825;BME280;16713;52.916;12.834;2023-04-22T10:37:13;100686.34;;;18.93;43.19
29825;BME280;16713;52.916;12.834;2023-04-22T10:42:33;100689.91;;;18.93;45.18
29825;BME280;16713;52.916;12.834;2023-04-22T10:45:01;100674.53;;;18.81;43.92
29825;BME280;16713;52.916;12.834;2023-04-22T10:47:33;100681.97;;;18.92;44.16
29825;BME280;16713;52.916;12.834;2023-04-22T10:50:24;100679.94;;;18.96;45.89
29825;BME280;16713;52.916;12.834;2023-04-22T10:52:57;100668.97;;;18.81;44.98
29825;BME280;16713;52.916;12.834;2023-04-22T10:55:24;100662.16;;;18.86;44.27
29825;BME280;16713;52.916;12.834;2023-04-22T10:57:52;100667.44;;;18.77;44.45
29825;BME280;16713;52.916;12.834;2023-04-22T11:00:26;100651.75;;;18.53;45.18
29825;BME280;16713;52.916;12.834;2023-04-22T11:05:31;100683.38;;;19.44;43.56
29825;BME280;16713;52.916;12.834;2023-04-22T11:08:04;100686.31;;;19.67;43.39
29825;BME280;16713;52.916;12.834;2023-04-22T11:10:42;100678.88;;;19.87;43.26
29825;BME280;16713;52.916;12.834;2023-04-22T11:13:15;100688.97;;;20.07;42.87
29825;BME280;16713;52.916;12.834;2023-04-22T11:15:44;100676.94;;;20.14;42.16
29825;BME280;16713;52.916;12.834;2023-04-22T11:18:25;100672.13;;;20.18;41.30
29825;BME280;16713;52.916;12.834;2023-04-22T11:20:55;100668.09;;;20.19;40.42
29825;BME280;16713;52.916;12.834;2023-04-22T11:23:25;100671.16;;;20.28;41.71
29825;BME280;16713;52.916;12.834;2023-04-22T11:26:00;100673.34;;;20.40;41.20
29825;BME280;16713;52.916;12.834;2023-04-22T11:28:27;100672.44;;;20.47;41.13
29825;BME280;16713;52.916;12.834;2023-04-22T11:31:05;100676.75;;;20.51;41.07
29825;BME280;16713;52.916;12.834;2023-04-22T11:33:33;100667.63;;;20.51;40.89
29825;BME280;16713;52.916;12.834;2023-04-22T11:36:00;100667.06;;;20.59;40.25
29825;BME280;16713;52.916;12.834;2023-04-22T11:38:27;100663.69;;;20.71;38.73
29825;BME280;16713;52.916;12.834;2023-04-22T11:40:54;100659.75;;;20.69;38.81
29825;BME280;16713;52.916;12.834;2023-04-22T11:43:23;100659.75;;;20.69;39.42
29825;BME280;16713;52.916;12.834;2023-04-22T11:45:49;100652.97;;;20.70;39.99
29825;BME280;16713;52.916;12.834;2023-04-22T11:48:16;100658.94;;;20.45;40.33
29825;BME280;16713;52.916;12.834;2023-04-22T11:50:42;100657.25;;;20.51;38.58
29825;BME280;16713;52.916;12.834;2023-04-22T11:55:45;100649.25;;;20.30;38.79
29825;BME280;16713;52.916;12.834;2023-04-22T11:58:19;100653.75;;;20.47;38.18
29825;BME280;16713;52.916;12.834;2023-04-22T12:00:50;100648.28;;;20.40;38.34
29825;BME280;16713;52.916;12.834;2023-04-22T12:03:19;100646.25;;;20.17;39.07
29825;BME280;16713;52.916;12.834;2023-04-22T12:06:00;100650.03;;;20.31;39.09
29825;BME280;16713;52.916;12.834;2023-04-22T12:08:38;100658.09;;;20.25;39.28
29825;BME280;16713;52.916;12.834;2023-04-22T12:11:10;100655.97;;;20.33;38.26
29825;BME280;16713;52.916;12.834;2023-04-22T12:16:14;100652.53;;;19.95;38.54
29825;BME280;16713;52.916;12.834;2023-04-22T12:18:48;100656.22;;;20.15;38.27
29825;BME280;16713;52.916;12.834;2023-04-22T12:21:18;100648.03;;;20.04;38.86
29825;BME280;16713;52.916;12.834;2023-04-22T12:23:51;100635.22;;;19.54;40.00
29825;BME280;16713;52.916;12.834;2023-04-22T12:26:20;100644.50;;;19.74;39.98
29825;BME280;16713;52.916;12.834;2023-04-22T12:28:50;100645.81;;;19.66;40.24
29825;BME280;16713;52.916;12.834;2023-04-22T12:31:17;100641.56;;;19.84;39.97
29825;BME280;16713;52.916;12.834;2023-04-22T12:33:44;100637.06;;;19.64;40.83
29825;BME280;16713;52.916;12.834;2023-04-22T12:36:11;100643.44;;;19.91;39.88
29825;BME280;16713;52.916;12.834;2023-04-22T12:38:38;100634.91;;;19.48;40.75
29825;BME280;16713;52.916;12.834;2023-04-22T12:41:05;100624.41;;;19.26;41.04
29825;BME280;16713;52.916;12.834;2023-04-22T12:43:33;100634.25;;;19.67;40.51
29825;BME280;16713;52.916;12.834;2023-04-22T12:46:02;100616.84;;;19.26;41.22
29825;BME280;16713;52.916;12.834;2023-04-22T12:48:29;100625.38;;;19.46;40.86
29825;BME280;16713;52.916;12.834;2023-04-22T12:50:56;100618.50;;;19.54;41.06
29825;BME280;16713;52.916;12.834;2023-04-22T12:53:25;100616.34;;;19.35;41.56
29825;BME280;16713;52.916;12.834;2023-04-22T12:55:52;100603.88;;;19.16;42.72
29825;BME280;16713;52.916;12.834;2023-04-22T12:58:19;100609.53;;;19.39;40.79